Time;durP1;ratioP1;P1;durP2;ratioP2;P2;SDS_P1;SDS_P2;PMS_P1;PMS_P2;Temp;Humidity;BMP_temperature;BMP_pressure;BME280_temperature;BME280_humidity;BME280_pressure;Samples;Min_cycle;Max_cycle;Signal;HPM_P1;HPM_P2
2022/03/07 00:01:38;;;;;;;5.78;4.72;;;23.40;31.70;;;;;;5019685;28;20041;-45
2022/03/07 00:04:05;;;;;;;5.25;4.57;;;23.30;31.70;;;;;;5003873;28;20033;-45
2022/03/07 00:06:30;;;;;;;6.13;4.68;;;23.30;31.70;;;;;;5003696;28;20061;-44
2022/03/07 00:08:56;;;;;;;5.97;4.53;;;23.30;31.70;;;;;;5004795;28;20117;-44
2022/03/07 00:11:22;;;;;;;6.00;4.80;;;23.30;31.70;;;;;;5004812;28;20112;-44
2022/03/07 00:13:48;;;;;;;5.85;4.60;;;23.30;31.70;;;;;;5004446;28;20026;-45
2022/03/07 00:16:14;;;;;;;6.18;4.95;;;23.30;32.40;;;;;;5004648;28;20025;-45
2022/03/07 00:18:40;;;;;;;5.85;5.00;;;23.30;32.40;;;;;;5004536;28;20029;-44
2022/03/07 00:21:08;;;;;;;5.68;4.80;;;23.30;31.70;;;;;;5004281;28;20701;-45
2022/03/07 00:23:34;;;;;;;5.80;5.05;;;23.30;31.70;;;;;;5004653;28;20026;-45
2022/03/07 00:26:00;;;;;;;6.13;4.70;;;23.20;31.70;;;;;;5004009;28;20478;-46
2022/03/07 00:28:26;;;;;;;5.22;4.65;;;23.20;31.70;;;;;;5004064;28;20638;-45
2022/03/07 00:30:51;;;;;;;4.80;3.90;;;23.20;31.70;;;;;;5003569;28;20034;-45
2022/03/07 00:33:17;;;;;;;5.50;4.53;;;23.20;31.70;;;;;;5011888;28;20030;-44
2022/03/07 00:35:44;;;;;;;5.10;4.35;;;23.20;31.70;;;;;;5017126;28;20037;-45
2022/03/07 00:38:09;;;;;;;5.50;4.32;;;23.20;31.80;;;;;;5010425;28;20034;-45
2022/03/07 00:40:35;;;;;;;6.15;5.18;;;23.20;31.70;;;;;;5018570;28;20099;-44
2022/03/07 00:43:01;;;;;;;5.68;4.55;;;23.10;31.70;;;;;;5029991;28;20108;-45
2022/03/07 00:45:27;;;;;;;6.60;5.18;;;23.10;31.80;;;;;;5013512;28;20095;-45
2022/03/07 00:47:52;;;;;;;5.93;4.75;;;23.20;31.80;;;;;;5012259;28;20435;-45
2022/03/07 00:50:18;;;;;;;5.18;4.15;;;23.10;31.80;;;;;;5016461;28;20091;-45
2022/03/07 00:52:44;;;;;;;5.63;4.10;;;23.10;31.80;;;;;;5004641;28;20022;-45
2022/03/07 00:55:10;;;;;;;6.38;4.88;;;23.10;31.80;;;;;;5004151;28;20113;-45
2022/03/07 00:57:36;;;;;;;5.95;4.90;;;23.10;31.80;;;;;;5004053;28;20064;-45
2022/03/07 01:00:03;;;;;;;6.70;5.28;;;23.00;31.60;;;;;;5004641;28;20092;-44
2022/03/07 01:02:29;;;;;;;5.90;4.70;;;23.10;31.70;;;;;;5005201;28;20489;-45
2022/03/07 01:04:55;;;;;;;5.47;4.70;;;23.00;31.60;;;;;;5008098;28;20037;-45
2022/03/07 01:07:21;;;;;;;5.70;4.85;;;23.00;31.70;;;;;;5007757;28;20553;-44
2022/03/07 01:09:47;;;;;;;6.00;4.85;;;23.00;31.60;;;;;;5007660;28;20113;-45
2022/03/07 01:12:13;;;;;;;5.70;5.10;;;23.00;31.60;;;;;;5008259;28;20097;-45
2022/03/07 01:14:39;;;;;;;6.75;5.43;;;23.00;31.70;;;;;;5008415;28;20370;-44
2022/03/07 01:17:05;;;;;;;5.60;4.55;;;23.00;31.70;;;;;;5016387;28;20238;-44
2022/03/07 01:19:30;;;;;;;5.78;4.85;;;23.00;31.70;;;;;;5021698;28;20033;-44
2022/03/07 01:21:56;;;;;;;6.22;5.20;;;23.00;31.60;;;;;;5020408;28;20025;-44
2022/03/07 01:24:22;;;;;;;6.13;4.85;;;23.00;31.70;;;;;;5018089;28;20033;-45
2022/03/07 01:26:48;;;;;;;5.95;4.95;;;23.00;31.70;;;;;;5019062;28;20062;-45
2022/03/07 01:29:14;;;;;;;7.10;5.95;;;23.00;31.70;;;;;;5028096;28;20032;-44
2022/03/07 01:31:40;;;;;;;6.80;5.30;;;22.90;31.70;;;;;;5021788;28;20030;-45
2022/03/07 01:34:06;;;;;;;5.90;5.07;;;22.90;31.60;;;;;;5007616;28;20057;-44
2022/03/07 01:36:32;;;;;;;7.10;5.57;;;22.90;31.60;;;;;;5008279;28;20563;-45
2022/03/07 01:38:57;;;;;;;6.18;4.90;;;22.90;31.70;;;;;;4990773;28;20026;-45
2022/03/07 01:41:23;;;;;;;6.05;4.93;;;22.90;31.60;;;;;;4988240;28;20026;-45
2022/03/07 01:43:49;;;;;;;5.88;4.82;;;22.90;31.60;;;;;;4988262;28;20033;-45
2022/03/07 01:46:15;;;;;;;6.28;5.15;;;22.90;31.60;;;;;;4988107;28;20031;-45
2022/03/07 01:48:40;;;;;;;6.60;5.60;;;22.90;31.60;;;;;;4988368;28;20031;-44
2022/03/07 01:51:07;;;;;;;5.35;4.53;;;22.90;31.60;;;;;;4998681;28;20015;-45
2022/03/07 01:53:33;;;;;;;5.88;4.97;;;22.90;31.70;;;;;;5016383;28;20030;-45
2022/03/07 01:55:59;;;;;;;6.25;5.13;;;22.90;31.60;;;;;;5026968;28;20455;-45
2022/03/07 01:58:25;;;;;;;6.50;5.38;;;22.90;31.60;;;;;;5020676;28;20548;-44
2022/03/07 02:00:50;;;;;;;6.32;5.18;;;22.80;32.20;;;;;;5026468;28;20032;-45
2022/03/07 02:03:16;;;;;;;6.13;5.20;;;22.80;31.60;;;;;;5017221;28;20063;-45
2022/03/07 02:05:45;;;;;;;6.10;5.40;;;22.80;31.50;;;;;;5018090;28;20030;-45
2022/03/07 02:08:11;;;;;;;5.75;4.63;;;22.80;31.60;;;;;;5007679;28;20370;-45
2022/03/07 02:10:37;;;;;;;5.50;4.80;;;22.80;31.50;;;;;;5007231;28;20096;-45
2022/03/07 02:13:10;;;;;;;5.82;4.63;;;22.80;31.60;;;;;;5007418;28;20026;-44
2022/03/07 02:15:36;;;;;;;;;;;22.80;31.50;;;;;;5023386;28;20083;-45
2022/03/07 02:18:01;;;;;;;6.50;5.03;;;22.80;31.60;;;;;;5007662;28;20428;-46
2022/03/07 02:20:28;;;;;;;6.80;5.38;;;22.80;31.50;;;;;;5022755;28;20034;-45
2022/03/07 02:22:53;;;;;;;5.93;4.97;;;22.80;31.50;;;;;;5006466;28;20034;-44
2022/03/07 02:25:19;;;;;;;6.68;5.45;;;22.80;31.50;;;;;;5006785;28;20440;-45
2022/03/07 02:27:45;;;;;;;6.22;5.15;;;22.80;31.50;;;;;;5007369;28;20037;-45
2022/03/07 02:30:11;;;;;;;6.80;5.07;;;22.70;31.50;;;;;;5007350;28;20741;-45
2022/03/07 02:32:37;;;;;;;6.38;5.47;;;22.80;31.50;;;;;;5007447;28;20082;-45
2022/03/07 02:35:03;;;;;;;6.47;5.40;;;22.70;31.50;;;;;;5006427;28;20030;-45
2022/03/07 02:37:30;;;;;;;5.95;5.15;;;22.70;31.50;;;;;;5007117;28;20124;-45
2022/03/07 02:39:56;;;;;;;5.90;5.28;;;22.70;31.60;;;;;;5006556;28;20087;-44
2022/03/07 02:42:21;;;;;;;6.30;5.60;;;22.80;31.50;;;;;;5005963;28;20034;-45
2022/03/07 02:44:47;;;;;;;6.50;4.97;;;22.70;31.50;;;;;;5006499;28;20113;-45
2022/03/07 02:47:16;;;;;;;6.07;5.03;;;22.70;31.50;;;;;;5007003;28;20018;-45
2022/03/07 02:49:42;;;;;;;7.88;4.93;;;22.70;31.50;;;;;;5006845;28;20092;-45
2022/03/07 02:52:08;;;;;;;6.45;5.25;;;22.70;31.60;;;;;;5006560;28;20630;-44
2022/03/07 02:54:34;;;;;;;6.18;5.32;;;22.70;31.50;;;;;;5006869;28;20029;-44
2022/03/07 02:57:00;;;;;;;6.55;5.20;;;22.70;31.50;;;;;;5006494;28;20121;-45
2022/03/07 02:59:26;;;;;;;5.75;4.90;;;22.70;31.50;;;;;;5006928;28;20120;-45
2022/03/07 03:01:51;;;;;;;6.65;5.55;;;22.70;31.50;;;;;;5005239;28;20041;-45
2022/03/07 03:04:17;;;;;;;6.82;5.30;;;22.70;31.50;;;;;;5006112;28;20137;-45
2022/03/07 03:06:43;;;;;;;6.25;5.40;;;22.60;31.50;;;;;;5006323;28;20045;-45
2022/03/07 03:09:09;;;;;;;7.03;5.20;;;22.60;31.50;;;;;;5006595;28;20032;-45
2022/03/07 03:11:35;;;;;;;6.75;5.60;;;22.60;31.40;;;;;;5006605;28;20109;-45
2022/03/07 03:14:02;;;;;;;7.00;5.50;;;22.60;31.40;;;;;;5006459;28;20330;-45
2022/03/07 03:16:28;;;;;;;6.63;5.55;;;22.60;31.40;;;;;;5005589;28;20151;-45
2022/03/07 03:18:54;;;;;;;6.07;5.20;;;22.60;31.40;;;;;;5006596;28;20105;-45
2022/03/07 03:21:20;;;;;;;6.05;5.32;;;22.60;31.40;;;;;;5006335;28;20996;-45
2022/03/07 03:23:48;;;;;;;5.95;5.28;;;22.60;31.40;;;;;;5006374;28;20197;-45
2022/03/07 03:26:14;;;;;;;5.78;5.00;;;22.60;31.50;;;;;;5005696;28;20552;-45
2022/03/07 03:28:39;;;;;;;6.25;5.25;;;22.60;31.50;;;;;;5006650;28;20034;-45
2022/03/07 03:31:06;;;;;;;6.15;5.15;;;22.60;31.40;;;;;;5005037;28;20488;-45
2022/03/07 03:33:33;;;;;;;6.40;5.28;;;22.60;31.50;;;;;;5021233;28;20026;-44
2022/03/07 03:35:58;;;;;;;6.38;5.30;;;22.60;31.50;;;;;;5005779;28;20041;-44
2022/03/07 03:38:24;;;;;;;5.93;4.97;;;22.60;31.50;;;;;;5005997;28;20029;-45
2022/03/07 03:40:50;;;;;;;6.40;5.18;;;22.60;31.50;;;;;;5006075;28;20029;-45
2022/03/07 03:43:16;;;;;;;6.50;5.45;;;22.60;31.50;;;;;;5005569;28;20057;-45
2022/03/07 03:45:41;;;;;;;6.75;5.35;;;22.50;31.40;;;;;;5005949;28;20072;-44
2022/03/07 03:48:07;;;;;;;5.70;5.10;;;22.50;31.50;;;;;;5006222;28;20041;-44
2022/03/07 03:50:33;;;;;;;6.15;4.93;;;22.50;31.50;;;;;;5005252;28;20029;-44
2022/03/07 03:52:58;;;;;;;5.88;4.80;;;22.50;31.50;;;;;;5005748;28;20022;-45
2022/03/07 03:55:24;;;;;;;6.38;5.38;;;22.50;31.40;;;;;;5005557;28;20039;-45
2022/03/07 03:57:50;;;;;;;6.25;5.63;;;22.50;31.50;;;;;;5005872;28;20241;-45
2022/03/07 04:00:18;;;;;;;5.82;5.20;;;22.50;31.50;;;;;;5005438;28;20065;-44
2022/03/07 04:02:44;;;;;;;6.07;4.75;;;22.50;31.50;;;;;;5005772;28;20039;-45
2022/03/07 04:05:11;;;;;;;6.65;5.57;;;22.50;31.50;;;;;;5004191;28;20026;-45
2022/03/07 04:07:38;;;;;;;6.68;5.78;;;22.40;31.40;;;;;;5005449;28;20494;-45
2022/03/07 04:10:05;;;;;;;6.28;5.25;;;22.40;31.40;;;;;;5005524;28;20362;-45
2022/03/07 04:12:31;;;;;;;6.97;5.80;;;22.40;31.40;;;;;;5005272;28;20026;-45
2022/03/07 04:14:56;;;;;;;5.85;5.13;;;22.40;31.40;;;;;;5005431;28;20069;-45
2022/03/07 04:17:22;;;;;;;5.72;5.03;;;22.40;31.40;;;;;;5005264;28;20030;-45
2022/03/07 04:19:48;;;;;;;6.28;5.20;;;22.40;31.40;;;;;;5005227;28;20065;-45
2022/03/07 04:22:14;;;;;;;6.47;5.55;;;22.40;31.40;;;;;;5004902;28;20034;-44
2022/03/07 04:24:39;;;;;;;6.57;5.32;;;22.40;31.40;;;;;;5005026;28;20236;-45
2022/03/07 04:27:05;;;;;;;7.10;5.38;;;22.40;31.30;;;;;;5005260;28;20017;-45
2022/03/07 04:29:31;;;;;;;6.25;5.55;;;22.40;31.40;;;;;;5005560;28;20034;-45
2022/03/07 04:31:57;;;;;;;6.70;5.75;;;22.40;31.40;;;;;;5005700;28;20036;-45
2022/03/07 04:34:23;;;;;;;6.13;5.35;;;22.40;31.40;;;;;;5004925;28;20026;-45
2022/03/07 04:36:49;;;;;;;6.85;5.90;;;22.40;31.40;;;;;;5004064;28;20082;-45
2022/03/07 04:39:14;;;;;;;7.28;6.10;;;22.40;31.40;;;;;;5005017;28;20559;-45
2022/03/07 04:41:40;;;;;;;6.70;5.57;;;22.40;31.40;;;;;;5004701;28;20418;-45
2022/03/07 04:44:06;;;;;;;5.65;4.95;;;22.30;31.40;;;;;;5005000;28;20088;-45
2022/03/07 04:46:32;;;;;;;5.85;5.18;;;22.30;31.40;;;;;;5005081;28;20030;-45
2022/03/07 04:48:58;;;;;;;5.97;5.28;;;22.30;31.40;;;;;;5005616;28;20080;-45
2022/03/07 04:51:24;;;;;;;6.68;5.97;;;22.30;31.40;;;;;;5004645;28;20037;-45
2022/03/07 04:53:50;;;;;;;6.45;5.72;;;22.30;31.40;;;;;;5004686;28;20030;-45
2022/03/07 04:56:16;;;;;;;6.65;5.78;;;22.30;31.40;;;;;;5019775;28;20305;-44
2022/03/07 04:58:42;;;;;;;6.38;5.20;;;22.30;31.40;;;;;;5004936;28;20026;-45
2022/03/07 05:01:09;;;;;;;6.40;5.50;;;22.30;31.40;;;;;;5004947;28;20034;-45
2022/03/07 05:03:35;;;;;;;6.35;5.32;;;22.30;31.40;;;;;;5019737;28;20550;-45
2022/03/07 05:06:01;;;;;;;6.68;5.97;;;22.30;31.40;;;;;;5004235;28;20026;-45
2022/03/07 05:08:27;;;;;;;6.75;6.03;;;22.30;31.40;;;;;;5004423;28;20034;-45
2022/03/07 05:10:53;;;;;;;6.60;5.65;;;22.30;31.40;;;;;;5004698;28;20032;-45
2022/03/07 05:13:19;;;;;;;6.97;5.95;;;22.20;31.30;;;;;;5004586;28;20296;-45
2022/03/07 05:15:44;;;;;;;7.78;5.72;;;22.30;31.50;;;;;;5004728;28;20030;-45
2022/03/07 05:18:10;;;;;;;6.93;6.20;;;22.30;31.50;;;;;;5004922;28;20045;-45
2022/03/07 05:20:36;;;;;;;7.07;5.65;;;22.30;31.50;;;;;;5004184;28;20033;-45
2022/03/07 05:23:01;;;;;;;7.18;6.47;;;22.30;31.60;;;;;;5004365;28;20105;-45
2022/03/07 05:25:27;;;;;;;7.45;6.63;;;22.30;31.60;;;;;;5003768;28;20061;-45
2022/03/07 05:27:53;;;;;;;7.65;6.10;;;22.20;32.20;;;;;;5004892;28;20034;-45
2022/03/07 05:30:21;;;;;;;7.18;6.10;;;22.30;31.70;;;;;;5004402;28;20057;-45
2022/03/07 05:32:50;;;;;;;7.10;6.13;;;22.30;31.80;;;;;;5004440;28;20060;-45
2022/03/07 05:35:16;;;;;;;6.50;5.50;;;22.30;31.80;;;;;;5003832;28;20030;-44
2022/03/07 05:37:41;;;;;;;7.15;5.53;;;22.40;31.80;;;;;;5003595;28;20080;-45
2022/03/07 05:40:09;;;;;;;7.45;6.45;;;22.40;31.80;;;;;;5004287;28;20042;-44
2022/03/07 05:42:36;;;;;;;7.22;5.68;;;22.50;31.90;;;;;;5003232;28;20484;-45
2022/03/07 05:45:03;;;;;;;7.70;6.18;;;22.50;31.80;;;;;;5003625;28;20080;-45
2022/03/07 05:47:29;;;;;;;7.20;6.25;;;22.60;31.80;;;;;;5003549;28;20037;-45
2022/03/07 05:49:55;;;;;;;7.60;6.38;;;22.70;31.70;;;;;;5007070;28;20026;-44
2022/03/07 05:52:21;;;;;;;6.75;5.55;;;22.70;31.60;;;;;;5006917;28;20531;-45
2022/03/07 05:54:46;;;;;;;6.15;5.55;;;22.80;31.50;;;;;;5007549;28;20032;-45
2022/03/07 05:57:12;;;;;;;6.60;5.90;;;22.90;31.50;;;;;;5007527;28;20108;-45
2022/03/07 05:59:38;;;;;;;6.97;6.20;;;23.00;31.30;;;;;;5007240;28;20290;-45
2022/03/07 06:02:03;;;;;;;7.32;5.65;;;23.00;31.20;;;;;;5007435;28;20112;-45
2022/03/07 06:04:29;;;;;;;6.72;5.60;;;23.10;31.10;;;;;;5006252;28;20065;-45
2022/03/07 06:06:55;;;;;;;6.82;5.80;;;23.20;31.10;;;;;;5006506;28;20030;-44
2022/03/07 06:09:20;;;;;;;5.78;4.82;;;23.20;31.10;;;;;;5005932;28;20057;-45
2022/03/07 06:11:47;;;;;;;6.05;5.15;;;23.30;31.20;;;;;;5006504;28;20367;-45
2022/03/07 06:14:13;;;;;;;5.90;5.10;;;23.40;31.20;;;;;;5005286;28;20541;-46
2022/03/07 06:16:39;;;;;;;6.65;5.47;;;23.50;31.30;;;;;;5021130;28;20034;-43
2022/03/07 06:19:04;;;;;;;6.07;5.47;;;23.50;31.30;;;;;;5006214;28;20022;-43
2022/03/07 06:21:30;;;;;;;7.53;5.90;;;23.60;31.10;;;;;;5005326;28;20030;-43
2022/03/07 06:23:56;;;;;;;6.88;5.57;;;23.70;31.00;;;;;;5004044;28;20456;-43
2022/03/07 06:26:23;;;;;;;6.95;6.10;;;23.70;30.90;;;;;;5005769;28;20703;-44
2022/03/07 06:28:50;;;;;;;7.15;5.50;;;23.80;30.70;;;;;;5005775;28;20034;-43
2022/03/07 06:31:16;;;;;;;7.10;5.47;;;23.90;30.80;;;;;;5003582;28;20096;-43
2022/03/07 06:33:41;;;;;;;7.18;5.25;;;23.90;30.70;;;;;;5004634;28;20532;-43
2022/03/07 06:36:08;;;;;;;7.45;5.78;;;24.00;30.50;;;;;;5004623;28;20065;-43
2022/03/07 06:38:34;;;;;;;8.52;6.28;;;24.00;30.40;;;;;;5005819;28;20552;-43
2022/03/07 06:41:00;;;;;;;9.68;6.15;;;24.10;30.40;;;;;;5005207;28;20092;-43
2022/03/07 06:43:26;;;;;;;7.15;6.20;;;24.20;30.30;;;;;;5004651;28;20022;-44
2022/03/07 06:45:53;;;;;;;9.25;5.90;;;24.20;30.20;;;;;;5005332;28;20014;-43
2022/03/07 06:48:19;;;;;;;7.95;5.72;;;24.20;30.10;;;;;;5005778;28;20072;-43
2022/03/07 06:50:44;;;;;;;8.55;6.18;;;24.30;30.10;;;;;;5003408;28;20294;-43
2022/03/07 06:53:10;;;;;;;5.97;5.18;;;24.30;30.10;;;;;;5005606;28;20499;-43
2022/03/07 06:55:36;;;;;;;6.47;5.20;;;24.30;30.10;;;;;;5005624;28;20078;-43
2022/03/07 06:58:02;;;;;;;6.55;5.50;;;24.30;30.10;;;;;;5003293;28;20034;-43
2022/03/07 07:00:28;;;;;;;7.03;5.05;;;24.40;30.10;;;;;;5002528;28;20030;-43
2022/03/07 07:02:54;;;;;;;7.53;5.68;;;24.30;30.40;;;;;;5004345;28;20053;-44
2022/03/07 07:05:19;;;;;;;7.93;5.95;;;24.40;30.40;;;;;;5004251;28;20060;-43
2022/03/07 07:07:45;;;;;;;8.63;5.60;;;24.40;30.90;;;;;;5005217;28;20081;-44
2022/03/07 07:10:13;;;;;;;5.88;5.10;;;24.40;30.20;;;;;;5004646;28;20022;-43
2022/03/07 07:12:38;;;;;;;7.40;5.43;;;24.40;30.10;;;;;;5003852;28;20030;-43
2022/03/07 07:15:06;;;;;;;7.50;5.90;;;24.40;30.00;;;;;;5003301;28;20538;-43
2022/03/07 07:17:33;;;;;;;6.90;5.22;;;24.50;30.00;;;;;;5004144;28;20032;-43
2022/03/07 07:19:59;;;;;;;10.20;5.30;;;24.50;29.90;;;;;;5019765;28;20038;-43
2022/03/07 07:22:24;;;;;;;6.32;5.35;;;24.60;29.70;;;;;;5003836;28;20034;-43
2022/03/07 07:24:50;;;;;;;6.45;5.35;;;24.60;29.50;;;;;;5004297;28;20045;-43
2022/03/07 07:27:16;;;;;;;6.75;5.05;;;24.60;29.50;;;;;;5002610;28;20020;-43
2022/03/07 07:29:42;;;;;;;6.63;5.22;;;24.70;29.70;;;;;;5004189;28;20029;-43
2022/03/07 07:32:08;;;;;;;6.95;5.60;;;24.70;29.60;;;;;;5020528;28;20481;-43
2022/03/07 07:34:34;;;;;;;6.82;5.25;;;24.70;29.50;;;;;;5020511;28;20033;-43
2022/03/07 07:37:00;;;;;;;8.80;5.53;;;24.80;29.60;;;;;;5004834;28;20029;-44
2022/03/07 07:39:25;;;;;;;7.65;6.22;;;24.80;29.80;;;;;;5020478;28;20033;-44
2022/03/07 07:41:51;;;;;;;8.15;6.03;;;24.90;29.70;;;;;;5004949;28;20630;-43
2022/03/07 07:44:17;;;;;;;6.60;5.00;;;24.90;29.70;;;;;;5003696;28;20065;-43
2022/03/07 07:46:43;;;;;;;6.68;5.18;;;25.00;29.60;;;;;;5004419;28;20680;-43
2022/03/07 07:49:09;;;;;;;7.43;5.15;;;25.00;29.60;;;;;;5004717;28;20092;-44
2022/03/07 07:51:34;;;;;;;8.27;4.70;;;25.00;29.50;;;;;;5004814;28;20034;-43
2022/03/07 07:54:00;;;;;;;6.70;5.00;;;25.00;29.50;;;;;;5005490;28;20104;-43
2022/03/07 07:56:27;;;;;;;6.50;5.25;;;25.10;29.40;;;;;;5004345;28;20061;-44
2022/03/07 07:58:53;;;;;;;8.13;4.82;;;25.10;29.30;;;;;;5002800;28;20026;-43
2022/03/07 08:01:19;;;;;;;7.20;5.13;;;25.10;29.60;;;;;;4999389;28;20056;-47
2022/03/07 08:03:44;;;;;;;5.80;4.78;;;25.20;29.50;;;;;;5004772;28;20045;-44
2022/03/07 08:06:10;;;;;;;6.03;4.10;;;25.20;29.50;;;;;;5004517;28;20124;-43
2022/03/07 08:08:36;;;;;;;5.68;4.72;;;25.20;29.60;;;;;;5004723;28;20026;-44
2022/03/07 08:11:02;;;;;;;6.60;4.80;;;25.20;29.60;;;;;;5003819;28;20033;-43
2022/03/07 08:13:28;;;;;;;7.45;4.50;;;25.20;29.50;;;;;;5019219;28;20090;-44
2022/03/07 08:15:53;;;;;;;6.35;4.80;;;25.20;29.70;;;;;;5004606;28;20033;-43
2022/03/07 08:18:19;;;;;;;6.45;4.60;;;25.30;29.60;;;;;;5004399;28;20072;-43
2022/03/07 08:20:45;;;;;;;6.18;4.30;;;25.30;29.70;;;;;;5004032;28;20055;-44
2022/03/07 08:23:10;;;;;;;6.38;4.68;;;25.30;29.50;;;;;;5004720;28;20097;-43
2022/03/07 08:25:36;;;;;;;7.05;4.57;;;25.30;29.50;;;;;;5004211;28;20041;-43
2022/03/07 08:28:03;;;;;;;6.20;4.68;;;25.30;29.50;;;;;;5004210;28;20109;-43
2022/03/07 08:30:30;;;;;;;5.60;4.25;;;25.30;29.40;;;;;;5004305;28;20042;-43
2022/03/07 08:32:56;;;;;;;6.47;4.47;;;25.40;29.40;;;;;;5004088;28;20022;-44
2022/03/07 08:35:23;;;;;;;5.68;4.13;;;25.40;29.30;;;;;;5001109;28;20313;-43
2022/03/07 08:37:50;;;;;;;6.32;4.60;;;25.40;29.30;;;;;;5003682;28;20508;-43
2022/03/07 08:40:18;;;;;;;4.90;4.10;;;25.40;29.20;;;;;;5003098;28;20037;-43
2022/03/07 08:42:44;;;;;;;5.00;3.75;;;25.40;29.00;;;;;;5003657;28;20033;-43
2022/03/07 08:45:11;;;;;;;4.82;3.60;;;25.40;29.10;;;;;;5003085;28;20032;-43
2022/03/07 08:47:39;;;;;;;5.05;3.88;;;25.40;29.00;;;;;;5003341;28;20063;-43
2022/03/07 08:50:08;;;;;;;4.78;3.55;;;25.40;29.00;;;;;;5004114;28;20587;-43
2022/03/07 08:52:35;;;;;;;4.70;3.53;;;25.40;29.00;;;;;;5003583;28;20110;-43
2022/03/07 08:55:01;;;;;;;5.78;4.35;;;25.40;29.00;;;;;;5002719;28;20057;-43
2022/03/07 08:57:27;;;;;;;4.82;3.88;;;25.40;28.90;;;;;;5004053;28;20108;-43
2022/03/07 08:59:52;;;;;;;5.47;4.03;;;25.40;28.80;;;;;;5006311;28;20137;-43
2022/03/07 09:02:18;;;;;;;8.65;4.20;;;25.40;28.80;;;;;;5004201;28;20610;-43
2022/03/07 09:04:44;;;;;;;5.25;3.55;;;25.40;28.80;;;;;;5019106;28;20048;-42
2022/03/07 09:07:10;;;;;;;5.43;4.13;;;25.40;28.70;;;;;;5002574;28;20029;-44
2022/03/07 09:09:36;;;;;;;4.78;3.63;;;25.40;28.80;;;;;;5003702;28;20029;-46
2022/03/07 09:12:03;;;;;;;5.38;3.90;;;25.50;28.70;;;;;;5003642;28;20037;-43
2022/03/07 09:14:30;;;;;;;5.35;4.03;;;25.40;28.70;;;;;;5003536;28;20520;-45
2022/03/07 09:16:56;;;;;;;6.10;4.10;;;25.40;28.70;;;;;;5002677;28;20705;-44
2022/03/07 09:19:21;;;;;;;5.00;3.47;;;25.40;28.70;;;;;;5003979;28;20034;-45
2022/03/07 09:21:47;;;;;;;6.05;4.20;;;25.50;28.60;;;;;;5003513;28;20634;-44
2022/03/07 09:24:13;;;;;;;5.30;4.28;;;25.50;28.50;;;;;;5005304;28;20413;-44
2022/03/07 09:26:39;;;;;;;4.85;3.75;;;25.50;28.50;;;;;;5007417;28;20022;-45
2022/03/07 09:29:05;;;;;;;5.57;3.60;;;25.50;28.50;;;;;;5007698;28;20382;-45
2022/03/07 09:31:30;;;;;;;5.95;4.60;;;25.50;28.40;;;;;;5007204;28;20026;-44
2022/03/07 09:33:56;;;;;;;4.80;3.45;;;25.50;28.40;;;;;;5007234;28;20022;-45
2022/03/07 09:36:22;;;;;;;5.30;3.78;;;25.50;28.40;;;;;;5006633;28;20032;-44
2022/03/07 09:38:50;;;;;;;5.43;4.13;;;25.50;28.70;;;;;;5007610;28;20037;-45
2022/03/07 09:41:17;;;;;;;5.20;3.45;;;25.50;28.70;;;;;;5007238;28;20107;-44
2022/03/07 09:43:44;;;;;;;5.25;3.88;;;25.50;28.90;;;;;;5003808;28;20038;-46
2022/03/07 09:46:10;;;;;;;5.18;3.47;;;25.50;28.80;;;;;;5005168;28;20042;-45
2022/03/07 09:48:36;;;;;;;4.78;3.75;;;25.50;29.00;;;;;;5005913;28;20040;-45
2022/03/07 09:51:02;;;;;;;5.35;3.60;;;25.60;28.90;;;;;;5006518;28;20702;-46
2022/03/07 09:53:27;;;;;;;5.13;3.45;;;25.60;29.00;;;;;;5006928;28;20030;-45
2022/03/07 09:55:53;;;;;;;4.95;3.80;;;25.50;28.90;;;;;;5002354;28;20033;-44
2022/03/07 09:58:19;;;;;;;4.95;3.58;;;25.60;29.50;;;;;;5007151;28;20105;-45
2022/03/07 10:00:45;;;;;;;4.22;3.13;;;25.60;28.80;;;;;;5006985;28;20113;-46
2022/03/07 10:03:13;;;;;;;5.20;3.15;;;25.60;28.70;;;;;;5006267;28;20107;-45
2022/03/07 10:05:45;;;;;;;4.82;3.65;;;25.60;28.80;;;;;;5006213;28;20026;-45
2022/03/07 10:08:21;;;;;;;5.07;3.45;;;25.60;28.80;;;;;;5004056;28;20026;-45
2022/03/07 10:10:48;;;;;;;4.60;3.45;;;25.60;28.80;;;;;;5006624;28;20075;-45
2022/03/07 10:13:14;;;;;;;4.75;3.63;;;25.60;28.80;;;;;;5005947;28;20022;-45
2022/03/07 10:15:42;;;;;;;4.38;3.20;;;25.60;28.70;;;;;;5006535;28;20033;-44
2022/03/07 10:18:27;;;;;;;3.90;3.00;;;25.60;28.80;;;;;;5006325;28;20468;-45
2022/03/07 10:20:55;;;;;;;3.90;2.80;;;25.60;28.80;;;;;;5006450;28;20038;-44
2022/03/07 10:23:25;;;;;;;5.25;3.42;;;25.60;28.80;;;;;;5004745;28;20056;-44
2022/03/07 10:25:52;;;;;;;3.92;2.90;;;25.60;28.70;;;;;;5006687;28;20033;-45
2022/03/07 10:28:18;;;;;;;5.03;3.08;;;25.60;28.70;;;;;;5021450;28;20026;-45
2022/03/07 10:30:45;;;;;;;3.88;2.55;;;25.60;29.30;;;;;;5006945;28;20026;-45
2022/03/07 10:33:13;;;;;;;4.45;3.05;;;25.60;28.60;;;;;;5006465;28;20088;-44
2022/03/07 10:35:49;;;;;;;4.25;3.00;;;25.60;28.60;;;;;;5004171;28;20030;-44
2022/03/07 10:38:17;;;;;;;4.15;3.00;;;25.60;28.70;;;;;;5006920;28;20034;-45
2022/03/07 10:40:51;;;;;;;5.22;3.33;;;25.60;28.60;;;;;;5006580;28;20314;-44
2022/03/07 10:43:18;;;;;;;3.78;2.65;;;25.60;28.60;;;;;;5006110;28;20392;-45
2022/03/07 10:45:54;;;;;;;3.95;2.75;;;25.60;28.60;;;;;;5005228;28;20030;-45
2022/03/07 10:48:21;;;;;;;4.03;2.58;;;25.60;28.60;;;;;;5006742;28;20229;-45
2022/03/07 10:50:58;;;;;;;4.40;2.65;;;25.60;28.70;;;;;;5005979;28;20034;-44
2022/03/07 10:53:24;;;;;;;6.22;3.20;;;25.60;28.90;;;;;;5006064;28;20053;-44
2022/03/07 10:56:00;;;;;;;4.70;2.90;;;25.60;28.90;;;;;;5005875;28;20033;-44
2022/03/07 10:58:27;;;;;;;4.88;3.30;;;25.60;29.00;;;;;;4994096;28;20709;-45
2022/03/07 11:00:55;;;;;;;4.53;2.50;;;25.60;29.10;;;;;;5001622;28;20030;-45
2022/03/07 11:03:24;;;;;;;3.88;2.67;;;25.60;29.40;;;;;;5003707;28;20266;-44
2022/03/07 11:05:51;;;;;;;4.20;2.60;;;25.60;29.40;;;;;;5004604;28;20704;-45
2022/03/07 11:08:18;;;;;;;4.18;2.38;;;25.60;29.30;;;;;;5004915;28;20646;-44
2022/03/07 11:10:51;;;;;;;4.07;2.75;;;25.60;29.20;;;;;;5004729;28;20493;-45
2022/03/07 11:13:19;;;;;;;4.25;2.63;;;25.60;29.10;;;;;;5004709;28;20325;-45
2022/03/07 11:15:47;;;;;;;5.13;2.70;;;25.60;29.20;;;;;;5005400;28;20142;-46
2022/03/07 11:18:15;;;;;;;4.90;2.65;;;25.60;29.10;;;;;;5001233;28;20030;-45
2022/03/07 11:20:43;;;;;;;4.03;2.63;;;25.60;29.00;;;;;;5004027;28;20053;-46
2022/03/07 11:23:11;;;;;;;3.53;2.25;;;25.60;29.00;;;;;;5003681;28;20263;-45
2022/03/07 11:25:38;;;;;;;4.15;2.72;;;25.60;29.00;;;;;;5005143;28;20049;-45
2022/03/07 11:28:05;;;;;;;4.03;2.58;;;25.50;29.00;;;;;;5006489;28;20030;-45
2022/03/07 11:30:39;;;;;;;3.40;2.25;;;25.50;29.00;;;;;;5006270;28;20036;-47
2022/03/07 11:33:16;;;;;;;3.58;2.25;;;25.50;29.00;;;;;;5006551;28;20030;-45
2022/03/07 11:35:49;;;;;;;3.38;2.10;;;25.50;29.00;;;;;;5003046;28;20041;-45
2022/03/07 11:38:20;;;;;;;5.30;2.63;;;25.50;29.00;;;;;;5003215;28;20038;-44
2022/03/07 11:41:10;;;;;;;3.58;2.10;;;25.50;29.00;;;;;;5004442;28;20033;-44
2022/03/07 11:44:01;;;;;;;3.28;2.17;;;25.50;29.00;;;;;;5009304;28;20053;-45
2022/03/07 11:46:35;;;;;;;3.33;2.05;;;25.40;29.10;;;;;;5006524;28;20095;-44
2022/03/07 11:49:03;;;;;;;3.30;1.90;;;25.40;29.10;;;;;;5009197;28;21071;-45
2022/03/07 11:51:31;;;;;;;3.45;2.17;;;25.40;29.30;;;;;;5005585;28;20458;-45
2022/03/07 11:53:57;;;;;;;4.65;2.33;;;25.50;29.40;;;;;;5003959;28;20060;-45
2022/03/07 11:56:29;;;;;;;4.88;2.30;;;25.40;29.30;;;;;;5021109;28;20514;-44
2022/03/07 11:58:57;;;;;;;4.03;1.80;;;25.50;29.30;;;;;;5024274;28;20037;-45
2022/03/07 12:01:24;;;;;;;4.13;2.45;;;25.40;29.30;;;;;;5021773;28;20040;-44
2022/03/07 12:03:50;;;;;;;3.42;1.92;;;25.50;29.30;;;;;;5004114;28;20437;-45
2022/03/07 12:06:19;;;;;;;3.72;2.17;;;25.40;29.30;;;;;;5004587;28;20020;-44
2022/03/07 12:08:48;;;;;;;3.13;2.08;;;25.40;29.30;;;;;;5004179;28;20406;-45
2022/03/07 12:11:36;;;;;;;3.30;2.03;;;25.40;29.30;;;;;;5004070;28;20049;-44
2022/03/07 12:14:07;;;;;;;3.75;2.20;;;25.40;29.30;;;;;;5004152;28;20049;-45
2022/03/07 12:16:38;;;;;;;3.30;1.63;;;25.50;29.20;;;;;;5004823;28;20022;-45
2022/03/07 12:19:16;;;;;;;3.78;2.10;;;25.40;29.20;;;;;;5004407;28;20034;-45
2022/03/07 12:21:44;;;;;;;3.72;2.25;;;25.40;29.20;;;;;;5004334;28;20113;-46
2022/03/07 12:24:15;;;;;;;3.40;2.20;;;25.40;29.10;;;;;;5018464;28;20033;-45
2022/03/07 12:26:44;;;;;;;3.53;1.83;;;25.50;29.10;;;;;;5003337;28;20038;-46
2022/03/07 12:29:10;;;;;;;2.85;1.80;;;25.40;29.00;;;;;;5003914;28;20017;-46
2022/03/07 12:31:36;;;;;;;3.75;1.92;;;25.40;29.00;;;;;;5004025;28;20537;-45
2022/03/07 12:34:04;;;;;;;4.45;2.13;;;25.40;29.00;;;;;;5003307;28;20014;-45
2022/03/07 12:36:30;;;;;;;3.67;2.20;;;25.50;29.00;;;;;;5003920;28;20030;-45
2022/03/07 12:38:58;;;;;;;3.20;1.75;;;25.40;29.00;;;;;;5004378;28;20033;-44
2022/03/07 12:41:33;;;;;;;4.20;1.90;;;25.40;29.00;;;;;;5004274;28;20033;-45
2022/03/07 12:44:00;;;;;;;3.13;1.67;;;25.50;29.00;;;;;;5003537;28;20026;-46
2022/03/07 12:46:26;;;;;;;2.85;1.55;;;25.40;29.00;;;;;;5003636;28;20049;-45